[ 高 清 坊 ]

[ 897 主题 / 1776431 回复 ]

版块介绍: 论坛制作高清同志影视

版主: 晃司, blv

 类型 作者/时间 回复 查看 最后发表
  [每分钟120击].120.Beats.Per.Minute.BPM.2017.720p.WEBRip.x264.AAC-QaFoNE  ...23456..92 blv 2018-1-1 2298/23681 fengma2004 昨天 19:41
  [嫉妒做客].Jealousy.Is.My.Guest.2016.Short.1080p.x264.AAC-QaFoNE  ...23456..40 blv 2017-12-28 993/13362 fengma2004 昨天 19:40
  [请以你的名字呼唤我].Call.Me.By.Your.Name.2017.DVDScr.Upscaled.x264.AAC-QaFoNE 评价指数 19  ...23456..118 blv 2017-12-23 2944/26731 家谦 10 小时前
  [疾走马丁].Speed.Walking.2014.1080p.WEBRip.x265.AC3-QaFoNE  ...23456..23 blv 2017-12-22 553/11159 oppojun 2018-7-28 08:48
  [帅气的恶魔].Handsome.Devil.2016.1080p.WEB-DL.x265.AC3-QaFoNE  ...23456..60 blv 2017-12-15 1479/17416 aswong 2 小时前
  [觉醒彩虹].Woke.2017.S01.1080p.WEBRip.x264.AAC-QaFoNE  ...23456..41 blv 2017-12-8 1003/13634 fengma2004 昨天 19:34
  [公猫].Tomcat.2016.DVDRip.x264.AC3-QaFoNE  ...23456..52 blv 2017-12-7 1299/14200 fengma2004 昨天 19:37
  [归巢].The.Nest.2016.DVDRip.x264.AAC-QaFoNE  ...23456..43 blv 2017-12-1 1073/12986 fengma2004 昨天 19:32
  [日常对话].Small.Talk.2016.720p.WEBRip.x264.AAC-QaFoNE  ...23456..15 blv 2017-11-27 363/11166 nickymark 2018-6-27 01:30
  [克罗地亚宪法].The.Constitution.2016.720p.WEBRip.x264.AC3-QaFoNE  ...23456..24 blv 2017-11-18 577/10750 49649393 4 天前 10:35
  [沙滩鼠].Beach.Rats.2017.1080p.BDRip.x265.AAC.AC3-QaFoNE  ...23456..95 blv 2017-11-11 2361/24209 fengma2004 昨天 19:30
  [老虎之战].The.Tigers.Fight.2016.Short.1080p.x264.AAC-QaFoNE  ...23456..28 blv 2017-10-22 676/13170 qafuser 前天 22:47
  [白日守门人].Daytime.Doorman.2016.Short.1080p.x264.AAC-QaFoNE  ...23456..80 blv 2017-10-11 1999/28838 chinel 5 天前 07:58
  [秋天之前].Before.the.Fall.2016.720p.WEB-DL.x264.AAC-QaFoNE  ...23456..102 blv 2017-10-7 2540/23858 xyz002008 前天 22:21
  [另一面].The.Other.Side.2017.Short.1080p.x264.AAC-QaFoNE  ...23456..46 blv 2017-10-1 1131/14845 fengma2004 昨天 19:28
  [同志地下情史之托马斯].The.DL.Chronicles.RETURNS.Episode.Thomas.2012.720p.WEBRip  ...23456..34 blv 2017-9-24 841/15396 fengma2004 昨天 19:18
  [足球赛].A.Football.Match.2015.Short.720p.x264.AAC-QaFoNE  ...23456..48 blv 2017-9-21 1191/16152 qafuser 前天 22:38
  [一分五十四秒].1.54.2016.720p.WEBRip.x264.AAC-QaFoNE  ...23456..41 blv 2017-9-17 1006/16303 qafuser 前天 22:37
  [小费].Tips.2016.Short.1080p.x264.AAC-QaFoNE  ...23456..43 blv 2017-9-14 1074/16520 fengma2004 昨天 19:19
  [阿里格尔].Aligarh.2016.720p.WEBRip.x264.AAC-QaFoNE  ...23456..31 blv 2017-9-10 763/14677 fengma2004 昨天 19:21
  [你愿意嫁给他吗].Do.You.Take.This.Man.2016.720p.WEB-DL.x264.AAC-QaFoNE  ...23456..64 blv 2017-9-3 1581/19501 lionbo 3 天前 23:14
  [一起度假].Away.with.Me.2015.Short.1080p.x264.AAC-QaFoNE  ...23456..54 blv 2017-8-31 1335/16406 alexeil 5 天前 14:30
  [橘衫男子].Man.in.an.Orange.Shirt.2017.Complete.720p.WEBRip.x264.AAC-QaFoNE  ...23456..66 blv 2017-8-27 1636/19260 wagon 昨天 20:31
  [碎碎爱].Fragments.2015.Short.720p.x264.AAC-QaFoNE  ...23456..31 blv 2017-8-23 760/10924 1452481422 6 天前 17:45
  [演讲辩论社].Speech.&.Debate.2017.720p.WEB-DL.x264.AAC-QaFoNE(8月22日修订版)  ...23456..36 blv 2017-8-19 891/14313 1452481422 6 天前 17:47
  • QAF三国群英传信息联盟发布平台
  •